createdAt,value
2023-02-14T00:00:10.487Z,7.77
2023-02-14T00:02:39.049Z,6.83
2023-02-14T00:05:08.073Z,7.30
2023-02-14T00:07:37.898Z,8.80
2023-02-14T00:10:07.809Z,7.07
2023-02-14T00:12:36.249Z,6.87
2023-02-14T00:15:22.368Z,8.27
2023-02-14T00:17:51.062Z,7.63
2023-02-14T00:20:19.890Z,5.80
2023-02-14T00:22:50.021Z,6.93
2023-02-14T00:25:19.065Z,5.80
2023-02-14T00:27:47.647Z,7.63
2023-02-14T00:30:16.326Z,6.43
2023-02-14T00:32:44.863Z,7.33
2023-02-14T00:35:13.659Z,7.37
2023-02-14T00:37:42.810Z,6.20
2023-02-14T00:40:13.251Z,6.40
2023-02-14T00:42:41.711Z,7.30
2023-02-14T00:45:10.824Z,6.80
2023-02-14T00:47:39.386Z,6.50
2023-02-14T00:50:08.671Z,7.10
2023-02-14T00:52:37.212Z,6.40
2023-02-14T00:55:06.166Z,7.60
2023-02-14T00:57:36.072Z,7.03
2023-02-14T01:00:07.551Z,6.60
2023-02-14T01:02:36.181Z,7.53
2023-02-14T01:05:04.862Z,6.37
2023-02-14T01:07:33.319Z,7.60
2023-02-14T01:10:02.020Z,6.50
2023-02-14T01:12:32.215Z,8.80
2023-02-14T01:15:03.991Z,7.23
2023-02-14T01:17:32.461Z,7.87
2023-02-14T01:20:00.940Z,7.20
2023-02-14T01:22:29.500Z,5.80
2023-02-14T01:24:58.005Z,6.90
2023-02-14T01:27:26.453Z,9.03
2023-02-14T01:29:55.685Z,6.97
2023-02-14T01:32:25.918Z,6.47
2023-02-14T01:34:54.801Z,6.50
2023-02-14T01:37:23.380Z,6.00
2023-02-14T01:39:52.330Z,7.70
2023-02-14T01:42:20.777Z,6.40
2023-02-14T01:44:58.796Z,6.83
2023-02-14T01:47:31.962Z,6.83
2023-02-14T01:50:05.668Z,6.43
2023-02-14T01:52:38.401Z,5.80
2023-02-14T01:55:14.083Z,7.10
2023-02-14T01:57:49.527Z,6.60
2023-02-14T02:00:36.589Z,6.80
2023-02-14T02:03:08.238Z,8.70
2023-02-14T02:05:40.062Z,5.97
2023-02-14T02:08:08.948Z,5.77
2023-02-14T02:10:37.415Z,6.70
2023-02-14T02:13:08.734Z,6.20
2023-02-14T02:15:43.721Z,5.77
2023-02-14T02:18:20.997Z,5.73
2023-02-14T02:21:13.750Z,5.73
2023-02-14T02:24:13.054Z,6.37
2023-02-14T02:27:15.378Z,6.47
2023-02-14T02:30:22.942Z,6.93
2023-02-14T02:33:21.598Z,6.10
2023-02-14T02:36:13.833Z,6.00
2023-02-14T02:38:55.728Z,8.83
2023-02-14T02:41:40.705Z,5.73
2023-02-14T02:44:17.436Z,5.97
2023-02-14T02:46:53.515Z,5.80
2023-02-14T02:49:54.951Z,7.20
2023-02-14T02:52:51.344Z,5.73
2023-02-14T02:55:25.920Z,5.93
2023-02-14T02:57:55.300Z,5.23
2023-02-14T03:00:25.519Z,5.97
2023-02-14T03:03:15.194Z,5.93
2023-02-14T03:05:44.951Z,5.90
2023-02-14T03:08:15.034Z,8.90
2023-02-14T03:10:44.389Z,7.93
2023-02-14T03:13:26.727Z,5.77
2023-02-14T03:16:27.340Z,5.93
2023-02-14T03:19:13.181Z,8.10
2023-02-14T03:21:48.885Z,5.30
2023-02-14T03:24:27.046Z,8.93
2023-02-14T03:27:04.393Z,5.70
2023-02-14T03:29:44.822Z,6.20
2023-02-14T03:32:18.063Z,6.63
2023-02-14T03:34:53.992Z,6.57
2023-02-14T03:37:27.581Z,6.67
2023-02-14T03:40:06.012Z,7.77
2023-02-14T03:42:39.131Z,6.63
2023-02-14T03:45:12.092Z,7.60
2023-02-14T03:47:43.764Z,7.13
2023-02-14T03:50:16.828Z,6.53
2023-02-14T03:52:47.711Z,6.63
2023-02-14T03:55:25.060Z,7.93
2023-02-14T03:57:59.740Z,6.40
2023-02-14T04:00:30.798Z,7.03
2023-02-14T04:03:06.218Z,6.00
2023-02-14T04:05:35.101Z,8.60
2023-02-14T04:08:03.793Z,7.37
2023-02-14T04:10:33.911Z,9.43
2023-02-14T04:13:02.540Z,6.80
2023-02-14T04:15:30.971Z,9.03
2023-02-14T04:18:16.897Z,7.30
2023-02-14T04:20:45.283Z,8.10
2023-02-14T04:23:13.894Z,6.33
2023-02-14T04:25:45.722Z,9.00
2023-02-14T04:28:14.222Z,6.63
2023-02-14T04:30:42.641Z,12.10
2023-02-14T04:33:11.002Z,7.40
2023-02-14T04:35:39.624Z,8.50
2023-02-14T04:38:08.299Z,7.73
2023-02-14T04:40:36.883Z,7.57
2023-02-14T04:43:07.636Z,8.83
2023-02-14T04:45:36.290Z,8.37
2023-02-14T04:48:04.926Z,9.50
2023-02-14T04:50:33.652Z,8.90
2023-02-14T04:53:02.164Z,9.97
2023-02-14T04:55:30.749Z,9.50
2023-02-14T04:57:59.131Z,9.30
2023-02-14T05:00:29.237Z,11.57
2023-02-14T05:02:57.778Z,9.50
2023-02-14T05:05:26.312Z,36.67
2023-02-14T05:07:54.765Z,65.60
2023-02-14T05:10:23.471Z,60.07
2023-02-14T05:12:51.841Z,39.33
2023-02-14T05:15:20.664Z,23.30
2023-02-14T05:17:50.578Z,15.13
2023-02-14T05:20:19.252Z,11.33
2023-02-14T05:22:47.671Z,11.13
2023-02-14T05:25:16.331Z,12.00
2023-02-14T05:27:44.829Z,13.17
2023-02-14T05:30:15.901Z,10.37
2023-02-14T05:32:44.519Z,10.23
2023-02-14T05:35:17.823Z,10.13
2023-02-14T05:37:49.148Z,12.63
2023-02-14T05:40:17.819Z,10.03
2023-02-14T05:42:50.019Z,11.13
2023-02-14T05:45:18.665Z,12.63
2023-02-14T05:47:48.805Z,10.50
2023-02-14T05:50:20.118Z,12.47
2023-02-14T05:52:53.463Z,75.83
2023-02-14T05:55:23.607Z,50.50
2023-02-14T05:57:52.879Z,28.70
2023-02-14T06:00:23.883Z,20.60
2023-02-14T06:02:55.503Z,15.23
2023-02-14T06:05:25.603Z,14.60
2023-02-14T06:07:54.444Z,10.40
2023-02-14T06:10:24.823Z,12.23
2023-02-14T06:12:55.376Z,11.13
2023-02-14T06:15:26.627Z,12.00
2023-02-14T06:17:56.402Z,12.50
2023-02-14T06:20:27.603Z,13.00
2023-02-14T06:22:56.250Z,14.27
2023-02-14T06:25:26.162Z,12.77
2023-02-14T06:27:57.357Z,12.23
2023-02-14T06:30:26.736Z,11.23
2023-02-14T06:32:55.637Z,65.57
2023-02-14T06:35:25.638Z,58.70
2023-02-14T06:37:54.260Z,25.77
2023-02-14T06:40:22.820Z,20.80
2023-02-14T06:42:51.293Z,13.90
2023-02-14T06:45:20.155Z,15.43
2023-02-14T06:47:48.683Z,16.13
2023-02-14T06:50:17.222Z,17.23
2023-02-14T06:52:47.456Z,16.47
2023-02-14T06:55:15.990Z,14.83
2023-02-14T06:57:44.593Z,49.10
2023-02-14T07:00:14.888Z,48.00
2023-02-14T07:02:43.746Z,20.30
2023-02-14T07:05:12.771Z,17.57
2023-02-14T07:07:41.211Z,16.57
2023-02-14T07:10:12.439Z,15.40
2023-02-14T07:12:41.212Z,17.00
2023-02-14T07:15:11.217Z,16.27
2023-02-14T07:17:39.966Z,11.63
2023-02-14T07:20:10.347Z,13.20
2023-02-14T07:22:39.529Z,14.13
2023-02-14T07:25:10.317Z,14.77
2023-02-14T07:27:39.119Z,17.13
2023-02-14T07:30:09.763Z,16.97
2023-02-14T07:32:39.027Z,16.27
2023-02-14T07:35:08.216Z,15.87
2023-02-14T07:37:37.141Z,16.73
2023-02-14T07:40:14.064Z,13.63
2023-02-14T07:42:44.942Z,14.13
2023-02-14T07:45:21.640Z,13.83
2023-02-14T07:47:52.065Z,15.73
2023-02-14T07:50:21.267Z,16.33
2023-02-14T07:52:49.840Z,13.80
2023-02-14T07:55:19.381Z,12.80
2023-02-14T07:57:50.819Z,15.70
2023-02-14T08:00:20.437Z,17.73
2023-02-14T08:02:51.507Z,14.47
2023-02-14T08:05:20.356Z,15.97
2023-02-14T08:07:49.101Z,22.80
2023-02-14T08:10:18.350Z,17.40
2023-02-14T08:13:02.293Z,18.57
2023-02-14T08:15:51.242Z,17.03
2023-02-14T08:18:20.794Z,17.57
2023-02-14T08:20:50.354Z,20.90
2023-02-14T08:23:20.607Z,19.83
2023-02-14T08:25:50.825Z,15.77
2023-02-14T08:28:21.911Z,22.57
2023-02-14T08:30:52.729Z,23.10
2023-02-14T08:33:22.112Z,55.73
2023-02-14T08:35:52.084Z,43.83
2023-02-14T08:38:20.847Z,27.43
2023-02-14T08:40:49.758Z,20.47
2023-02-14T08:43:18.268Z,22.30
2023-02-14T08:45:48.621Z,20.67
2023-02-14T08:48:18.652Z,20.23
2023-02-14T08:50:47.198Z,20.20
2023-02-14T08:53:16.279Z,21.23
2023-02-14T08:55:45.001Z,18.23
2023-02-14T08:58:14.394Z,19.27
2023-02-14T09:00:43.049Z,20.47
2023-02-14T09:03:11.843Z,15.93
2023-02-14T09:05:41.821Z,18.63
2023-02-14T09:08:10.581Z,18.40
2023-02-14T09:10:39.109Z,18.30
2023-02-14T09:13:07.820Z,19.37
2023-02-14T09:15:36.507Z,18.93
2023-02-14T09:18:05.375Z,17.23
2023-02-14T09:20:34.009Z,18.07
2023-02-14T09:23:04.173Z,17.70
2023-02-14T09:25:33.336Z,40.07
2023-02-14T09:28:02.027Z,45.97
2023-02-14T09:30:30.773Z,32.53
2023-02-14T09:33:00.373Z,28.00
2023-02-14T09:35:29.019Z,23.50
2023-02-14T09:37:56.630Z,18.13
2023-02-14T09:40:27.028Z,23.27
2023-02-14T09:43:09.905Z,16.47
2023-02-14T09:45:39.734Z,16.73
2023-02-14T09:48:14.350Z,17.80
2023-02-14T09:50:48.577Z,15.80
2023-02-14T09:53:26.257Z,19.63
2023-02-14T09:56:05.357Z,19.07
2023-02-14T09:58:37.727Z,17.27
2023-02-14T10:01:16.750Z,19.83
2023-02-14T10:03:58.483Z,17.47
2023-02-14T10:06:44.793Z,16.00
2023-02-14T10:09:23.943Z,16.10
2023-02-14T10:11:55.827Z,18.50
2023-02-14T10:14:28.054Z,14.50
2023-02-14T10:17:00.888Z,16.70
2023-02-14T10:19:35.680Z,17.50
2023-02-14T10:22:08.582Z,18.33
2023-02-14T10:24:41.536Z,16.17
2023-02-14T10:27:28.385Z,15.40
2023-02-14T10:29:57.212Z,26.00
2023-02-14T10:32:33.376Z,73.43
2023-02-14T10:35:07.098Z,47.47
2023-02-14T10:37:49.480Z,31.40
2023-02-14T10:40:46.622Z,26.50
2023-02-14T10:43:26.559Z,25.20
2023-02-14T10:46:03.697Z,21.67
2023-02-14T10:48:41.219Z,23.50
2023-02-14T10:51:18.073Z,17.23
2023-02-14T10:54:00.384Z,24.43
2023-02-14T10:56:35.916Z,16.00
2023-02-14T10:59:19.753Z,16.20
2023-02-14T11:01:49.746Z,16.70
2023-02-14T11:04:19.617Z,17.10
2023-02-14T11:06:49.344Z,18.33
2023-02-14T11:09:18.280Z,15.57
2023-02-14T11:11:51.654Z,14.77
2023-02-14T11:14:24.407Z,17.63
2023-02-14T11:16:54.443Z,15.87
2023-02-14T11:19:28.064Z,16.97
2023-02-14T11:21:58.661Z,16.40
2023-02-14T11:24:30.124Z,16.07
2023-02-14T11:27:01.736Z,14.00
2023-02-14T11:29:36.963Z,16.07
2023-02-14T11:32:10.458Z,14.27
2023-02-14T11:34:41.110Z,14.00
2023-02-14T11:37:26.965Z,23.43
2023-02-14T11:39:58.032Z,35.43
2023-02-14T11:42:41.719Z,38.07
2023-02-14T11:45:32.529Z,28.00
2023-02-14T11:48:37.331Z,21.03
2023-02-14T11:51:10.132Z,17.40
2023-02-14T11:53:46.776Z,19.27
2023-02-14T11:56:17.944Z,14.50
2023-02-14T11:58:51.187Z,15.60
2023-02-14T12:01:27.528Z,13.03
2023-02-14T12:03:58.687Z,11.90
2023-02-14T12:06:30.456Z,15.63
2023-02-14T12:09:13.221Z,11.33
2023-02-14T12:11:41.706Z,12.87
2023-02-14T12:14:22.829Z,12.30
2023-02-14T12:17:01.437Z,12.07
2023-02-14T12:19:38.466Z,12.80
2023-02-14T12:22:08.294Z,13.60
2023-02-14T12:24:40.127Z,11.33
2023-02-14T12:27:21.427Z,12.20
2023-02-14T12:29:55.613Z,11.77
2023-02-14T12:32:27.509Z,15.13
2023-02-14T12:35:05.056Z,13.13
2023-02-14T12:37:45.503Z,11.20
2023-02-14T12:40:27.999Z,10.20
2023-02-14T12:43:10.727Z,12.43
2023-02-14T12:46:00.740Z,10.17
2023-02-14T12:48:43.379Z,12.27
2023-02-14T12:51:17.233Z,14.57
2023-02-14T12:54:17.533Z,11.70
2023-02-14T12:56:56.479Z,9.13
2023-02-14T12:59:33.418Z,9.70
2023-02-14T13:02:33.654Z,9.47
2023-02-14T13:05:13.174Z,9.70
2023-02-14T13:07:56.806Z,20.10
2023-02-14T13:10:36.915Z,18.30
2023-02-14T13:13:12.162Z,14.83
2023-02-14T13:15:48.690Z,15.03
2023-02-14T13:18:25.143Z,14.13
2023-02-14T13:20:58.242Z,14.00
2023-02-14T13:23:30.558Z,11.70
2023-02-14T13:26:04.880Z,13.70
2023-02-14T13:28:34.090Z,12.77
2023-02-14T13:31:03.692Z,11.47
2023-02-14T13:33:36.625Z,10.77
2023-02-14T13:36:10.115Z,11.60
2023-02-14T13:38:44.021Z,10.53
2023-02-14T13:41:14.004Z,9.37
2023-02-14T13:43:50.951Z,8.10
2023-02-14T13:46:23.324Z,9.70
2023-02-14T13:49:00.511Z,8.90
2023-02-14T13:51:50.898Z,11.13
2023-02-14T13:54:32.736Z,8.77
2023-02-14T13:57:03.159Z,9.70
2023-02-14T13:59:33.789Z,8.43
2023-02-14T14:02:41.271Z,9.53
2023-02-14T14:05:48.795Z,8.83
2023-02-14T14:08:43.602Z,8.87
2023-02-14T14:11:34.609Z,8.67
2023-02-14T14:14:05.301Z,8.43
2023-02-14T14:16:36.756Z,8.20
2023-02-14T14:19:11.653Z,8.37
2023-02-14T14:21:43.622Z,9.03
2023-02-14T14:24:23.680Z,8.83
2023-02-14T14:26:59.235Z,8.40
2023-02-14T14:29:31.773Z,8.23
2023-02-14T14:32:01.234Z,9.23
2023-02-14T14:34:30.165Z,10.10
2023-02-14T14:37:07.196Z,8.80
2023-02-14T14:39:39.980Z,8.33
2023-02-14T14:42:10.523Z,8.60
2023-02-14T14:44:48.437Z,10.70
2023-02-14T14:47:21.018Z,8.00
2023-02-14T14:49:49.884Z,7.90
2023-02-14T14:52:36.347Z,7.37
2023-02-14T14:55:09.309Z,11.27
2023-02-14T14:57:40.080Z,15.67
2023-02-14T15:00:28.675Z,16.13
2023-02-14T15:02:59.642Z,12.77
2023-02-14T15:05:30.726Z,12.57
2023-02-14T15:07:59.219Z,12.80
2023-02-14T15:10:31.579Z,10.37
2023-02-14T15:13:18.334Z,9.73
2023-02-14T15:15:51.115Z,8.20
2023-02-14T15:18:22.181Z,9.80
2023-02-14T15:20:51.472Z,8.60
2023-02-14T15:23:24.051Z,9.90
2023-02-14T15:25:54.054Z,9.43
2023-02-14T15:28:30.355Z,9.13
2023-02-14T15:31:01.501Z,9.50
2023-02-14T15:33:31.702Z,9.37
2023-02-14T15:36:04.232Z,9.40
2023-02-14T15:38:36.162Z,8.60
2023-02-14T15:41:06.351Z,9.40
2023-02-14T15:43:37.872Z,7.90
2023-02-14T15:46:18.832Z,8.67
2023-02-14T15:48:47.873Z,7.17
2023-02-14T15:51:20.987Z,7.57
2023-02-14T15:53:53.758Z,11.60
2023-02-14T15:56:27.257Z,10.87
2023-02-14T15:59:01.356Z,8.10
2023-02-14T16:01:30.884Z,12.00
2023-02-14T16:04:02.784Z,9.70
2023-02-14T16:06:34.210Z,13.93
2023-02-14T16:09:03.851Z,10.33
2023-02-14T16:11:36.145Z,13.27
2023-02-14T16:14:35.047Z,12.20
2023-02-14T16:17:05.552Z,11.00
2023-02-14T16:19:41.151Z,12.17
2023-02-14T16:22:11.398Z,13.73
2023-02-14T16:24:42.066Z,14.43
2023-02-14T16:27:13.339Z,12.90
2023-02-14T16:29:41.767Z,18.63
2023-02-14T16:32:16.506Z,19.73
2023-02-14T16:34:47.388Z,18.00
2023-02-14T16:37:22.383Z,14.70
2023-02-14T16:39:52.318Z,16.20
2023-02-14T16:42:22.378Z,13.87
2023-02-14T16:44:51.356Z,15.40
2023-02-14T16:47:21.828Z,15.37
2023-02-14T16:49:50.789Z,12.53
2023-02-14T16:52:24.107Z,15.40
2023-02-14T16:54:52.673Z,12.50
2023-02-14T16:57:28.022Z,13.30
2023-02-14T16:59:57.870Z,13.40
2023-02-14T17:02:28.402Z,14.10
2023-02-14T17:04:57.188Z,16.83
2023-02-14T17:07:26.082Z,18.10
2023-02-14T17:10:02.407Z,16.30
2023-02-14T17:12:38.411Z,16.17
2023-02-14T17:15:12.215Z,15.07
2023-02-14T17:17:40.933Z,12.33
2023-02-14T17:20:10.771Z,14.23
2023-02-14T17:22:39.490Z,17.00
2023-02-14T17:25:08.374Z,14.43
2023-02-14T17:27:38.933Z,14.20
2023-02-14T17:30:10.171Z,16.80
2023-02-14T17:32:44.043Z,16.50
2023-02-14T17:35:14.517Z,16.37
2023-02-14T17:37:43.597Z,17.10
2023-02-14T17:40:13.103Z,17.27
2023-02-14T17:42:43.268Z,17.30
2023-02-14T17:45:12.862Z,20.00
2023-02-14T17:47:43.219Z,21.80
2023-02-14T17:50:13.110Z,27.57
2023-02-14T17:52:41.727Z,20.77
2023-02-14T17:55:10.548Z,20.23
2023-02-14T17:57:41.001Z,22.83
2023-02-14T18:00:14.296Z,25.93
2023-02-14T18:02:42.922Z,19.00
2023-02-14T18:05:12.313Z,19.00
2023-02-14T18:07:40.723Z,18.43
2023-02-14T18:10:09.890Z,25.10
2023-02-14T18:12:38.283Z,21.03
2023-02-14T18:15:07.036Z,26.23
2023-02-14T18:17:36.805Z,24.97
2023-02-14T18:20:06.382Z,25.60
2023-02-14T18:22:35.048Z,23.80
2023-02-14T18:25:03.375Z,22.47
2023-02-14T18:27:32.618Z,20.00
2023-02-14T18:30:01.041Z,19.53
2023-02-14T18:32:29.503Z,19.03
2023-02-14T18:34:59.237Z,19.00
2023-02-14T18:37:27.585Z,24.43
2023-02-14T18:39:56.047Z,21.10
2023-02-14T18:42:24.447Z,22.00
2023-02-14T18:44:52.721Z,21.07
2023-02-14T18:47:21.351Z,22.30
2023-02-14T18:49:49.644Z,18.93
2023-02-14T18:52:19.414Z,20.37
2023-02-14T18:54:47.755Z,21.57
2023-02-14T18:57:16.467Z,21.77
2023-02-14T18:59:45.157Z,18.10
2023-02-14T19:02:17.052Z,23.17
2023-02-14T19:04:45.480Z,22.60
2023-02-14T19:07:14.204Z,20.53
2023-02-14T19:09:51.673Z,22.37
2023-02-14T19:12:20.209Z,25.90
2023-02-14T19:14:48.671Z,19.47
2023-02-14T19:17:18.019Z,23.43
2023-02-14T19:19:46.482Z,25.30
2023-02-14T19:22:15.076Z,27.03
2023-02-14T19:24:45.116Z,26.00
2023-02-14T19:27:13.638Z,24.40
2023-02-14T19:29:42.208Z,25.70
2023-02-14T19:32:10.687Z,20.30
2023-02-14T19:34:39.932Z,22.60
2023-02-14T19:37:08.341Z,20.70
2023-02-14T19:39:36.746Z,22.33
2023-02-14T19:42:06.823Z,20.90
2023-02-14T19:44:35.325Z,22.77
2023-02-14T19:47:15.701Z,18.20
2023-02-14T19:49:53.215Z,17.50
2023-02-14T19:52:26.676Z,16.97
2023-02-14T19:54:57.426Z,15.57
2023-02-14T19:57:27.446Z,17.77
2023-02-14T19:59:55.852Z,14.70
2023-02-14T20:02:24.774Z,13.30
2023-02-14T20:04:53.577Z,14.63
2023-02-14T20:07:22.861Z,16.27
2023-02-14T20:09:51.335Z,12.87
2023-02-14T20:12:19.833Z,15.33
2023-02-14T20:14:52.171Z,15.10
2023-02-14T20:17:20.800Z,13.30
2023-02-14T20:19:49.608Z,14.70
2023-02-14T20:22:18.097Z,13.63
2023-02-14T20:24:46.719Z,16.27
2023-02-14T20:27:15.167Z,14.53
2023-02-14T20:29:47.103Z,14.93
2023-02-14T20:32:18.635Z,16.47
2023-02-14T20:34:48.096Z,16.30
2023-02-14T20:37:18.551Z,15.33
2023-02-14T20:39:47.422Z,13.93
2023-02-14T20:42:18.196Z,14.80
2023-02-14T20:44:47.072Z,15.93
2023-02-14T20:47:20.471Z,15.00
2023-02-14T20:49:48.856Z,15.63
2023-02-14T20:52:19.212Z,15.50
2023-02-14T20:54:47.978Z,15.50
2023-02-14T20:57:18.788Z,14.33
2023-02-14T20:59:47.177Z,18.03
2023-02-14T21:02:25.931Z,14.77
2023-02-14T21:04:54.261Z,16.30
2023-02-14T21:07:22.802Z,16.60
2023-02-14T21:09:54.442Z,20.67
2023-02-14T21:12:25.619Z,18.63
2023-02-14T21:14:53.948Z,18.40
2023-02-14T21:17:28.043Z,17.30
2023-02-14T21:19:59.123Z,18.47
2023-02-14T21:22:27.517Z,16.33
2023-02-14T21:24:56.323Z,16.17
2023-02-14T21:27:25.032Z,18.00
2023-02-14T21:29:53.416Z,17.20
2023-02-14T21:32:26.090Z,15.93
2023-02-14T21:34:54.526Z,16.80
2023-02-14T21:37:23.342Z,15.23
2023-02-14T21:39:51.755Z,16.93
2023-02-14T21:42:21.253Z,17.90
2023-02-14T21:45:07.206Z,17.37
2023-02-14T21:47:39.825Z,19.53
2023-02-14T21:50:26.183Z,17.00
2023-02-14T21:52:54.597Z,18.43
2023-02-14T21:55:23.156Z,17.03
2023-02-14T21:57:51.593Z,17.30
2023-02-14T22:00:22.941Z,16.97
2023-02-14T22:02:52.968Z,17.53
2023-02-14T22:05:21.382Z,15.80
2023-02-14T22:07:50.817Z,22.00
2023-02-14T22:10:19.269Z,18.17
2023-02-14T22:12:47.633Z,18.57
2023-02-14T22:15:16.020Z,19.60
2023-02-14T22:17:45.104Z,20.00
2023-02-14T22:20:14.923Z,18.53
2023-02-14T22:22:43.478Z,21.50
2023-02-14T22:25:11.988Z,17.50
2023-02-14T22:27:40.941Z,20.70
2023-02-14T22:30:10.254Z,18.03
2023-02-14T22:32:38.595Z,16.87
2023-02-14T22:35:07.969Z,19.80
2023-02-14T22:37:37.747Z,19.47
2023-02-14T22:40:07.373Z,18.73
2023-02-14T22:42:36.278Z,17.80
2023-02-14T22:45:05.340Z,18.13
2023-02-14T22:47:34.157Z,18.20
2023-02-14T22:50:03.044Z,21.97
2023-02-14T22:52:31.472Z,18.87
2023-02-14T22:55:01.277Z,17.83
2023-02-14T22:57:29.797Z,19.90
2023-02-14T22:59:58.133Z,18.63
2023-02-14T23:02:26.532Z,18.50
2023-02-14T23:04:57.149Z,19.70
2023-02-14T23:07:25.547Z,21.00
2023-02-14T23:09:54.104Z,19.83
2023-02-14T23:12:41.636Z,18.03
2023-02-14T23:15:28.333Z,18.10
2023-02-14T23:18:15.027Z,18.97
2023-02-14T23:21:00.980Z,17.40
2023-02-14T23:23:32.239Z,20.27
2023-02-14T23:26:01.690Z,21.40
2023-02-14T23:28:31.701Z,19.50
2023-02-14T23:31:02.219Z,21.40
2023-02-14T23:33:30.696Z,18.97
2023-02-14T23:36:02.919Z,20.00
2023-02-14T23:38:31.362Z,22.70
2023-02-14T23:41:17.490Z,21.07
2023-02-14T23:43:50.011Z,23.93
2023-02-14T23:46:18.314Z,21.50
2023-02-14T23:48:47.131Z,20.27
2023-02-14T23:51:15.677Z,22.60
2023-02-14T23:53:44.084Z,22.03
2023-02-14T23:56:12.487Z,20.83
2023-02-14T23:58:43.269Z,20.30
